Terminal Aerodrome Forecast
Issued by NWS

Home | Current Version | Previous Version | Text Only | Print | Product List | Glossary On
Versions: 1 2 3 4 5 6 7 8 9 10 11 12 13 14 15 16 17
000
FTUS46 KLOX 301700
TAFOXR
TAF
KOXR 301729Z 3018/3118 29007KT P6SM SCT150
     FM302000 26010KT P6SM SCT150
     FM310300 VRB03KT P6SM SCT150
     FM311200 VRB03KT 4SM BR SCT005=

USA.gov is the U.S. government's official web portal to all federal, state and local government web resources and services.